sensor_id;sensor_type;location;lat;lon;timestamp;pressure;altitude;pressure_sealevel;temperature;humidity
29815;BME280;16708;50.426;7.664;2022-10-16T00:05:37;983.92;;;14.48;100.00
29815;BME280;16708;50.426;7.664;2022-10-16T00:20:16;983.87;;;14.49;100.00
29815;BME280;16708;50.426;7.664;2022-10-16T00:34:56;983.82;;;14.32;100.00
29815;BME280;16708;50.426;7.664;2022-10-16T00:49:34;984.05;;;14.52;100.00
29815;BME280;16708;50.426;7.664;2022-10-16T01:04:02;984.28;;;14.47;100.00
29815;BME280;16708;50.426;7.664;2022-10-16T01:18:41;984.23;;;14.31;100.00
29815;BME280;16708;50.426;7.664;2022-10-16T01:33:21;984.19;;;14.36;100.00
29815;BME280;16708;50.426;7.664;2022-10-16T01:47:56;984.21;;;14.14;100.00
29815;BME280;16708;50.426;7.664;2022-10-16T02:02:35;984.22;;;14.08;100.00
29815;BME280;16708;50.426;7.664;2022-10-16T02:17:15;984.45;;;14.20;100.00
29815;BME280;16708;50.426;7.664;2022-10-16T02:31:54;984.50;;;14.27;100.00
29815;BME280;16708;50.426;7.664;2022-10-16T02:46:32;984.42;;;14.43;100.00
29815;BME280;16708;50.426;7.664;2022-10-16T03:01:11;984.38;;;14.45;100.00
29815;BME280;16708;50.426;7.664;2022-10-16T03:15:50;984.30;;;14.40;100.00
29815;BME280;16708;50.426;7.664;2022-10-16T03:30:29;984.52;;;14.18;100.00
29815;BME280;16708;50.426;7.664;2022-10-16T03:45:08;984.76;;;14.22;100.00
29815;BME280;16708;50.426;7.664;2022-10-16T03:59:46;984.98;;;14.19;100.00
29815;BME280;16708;50.426;7.664;2022-10-16T04:14:27;984.98;;;14.21;100.00
29815;BME280;16708;50.426;7.664;2022-10-16T04:29:06;984.91;;;14.04;100.00
29815;BME280;16708;50.426;7.664;2022-10-16T04:43:45;984.97;;;14.04;100.00
29815;BME280;16708;50.426;7.664;2022-10-16T04:58:24;985.33;;;14.03;100.00
29815;BME280;16708;50.426;7.664;2022-10-16T05:13:03;985.21;;;14.06;100.00
29815;BME280;16708;50.426;7.664;2022-10-16T05:27:42;985.14;;;14.18;100.00
29815;BME280;16708;50.426;7.664;2022-10-16T05:42:20;985.36;;;13.94;100.00
29815;BME280;16708;50.426;7.664;2022-10-16T05:56:59;985.53;;;13.72;100.00
29815;BME280;16708;50.426;7.664;2022-10-16T06:11:38;985.60;;;13.89;100.00
29815;BME280;16708;50.426;7.664;2022-10-16T06:26:16;985.71;;;14.00;100.00
29815;BME280;16708;50.426;7.664;2022-10-16T06:40:55;985.93;;;14.26;100.00
29815;BME280;16708;50.426;7.664;2022-10-16T06:55:32;986.16;;;14.65;100.00
29815;BME280;16708;50.426;7.664;2022-10-16T07:10:09;986.55;;;14.49;100.00
29815;BME280;16708;50.426;7.664;2022-10-16T07:24:48;986.64;;;14.95;100.00
29815;BME280;16708;50.426;7.664;2022-10-16T07:39:26;986.91;;;15.37;100.00
29815;BME280;16708;50.426;7.664;2022-10-16T07:54:06;987.11;;;15.23;100.00
29815;BME280;16708;50.426;7.664;2022-10-16T08:08:45;987.39;;;15.51;100.00
29815;BME280;16708;50.426;7.664;2022-10-16T08:23:23;987.41;;;15.59;100.00
29815;BME280;16708;50.426;7.664;2022-10-16T08:38:03;987.82;;;15.97;100.00
29815;BME280;16708;50.426;7.664;2022-10-16T08:52:38;988.03;;;15.36;100.00
29815;BME280;16708;50.426;7.664;2022-10-16T09:21:58;988.20;;;17.02;100.00
29815;BME280;16708;50.426;7.664;2022-10-16T09:36:37;988.35;;;16.52;100.00
29815;BME280;16708;50.426;7.664;2022-10-16T09:51:15;988.21;;;16.91;100.00
29815;BME280;16708;50.426;7.664;2022-10-16T10:05:55;988.38;;;17.09;100.00
29815;BME280;16708;50.426;7.664;2022-10-16T10:35:21;988.32;;;22.28;100.00
29815;BME280;16708;50.426;7.664;2022-10-16T10:45:14;988.18;;;23.28;90.94
29815;BME280;16708;50.426;7.664;2022-10-16T10:55:06;988.20;;;26.31;57.05
29815;BME280;16708;50.426;7.664;2022-10-16T11:09:52;988.17;;;24.80;61.77
29815;BME280;16708;50.426;7.664;2022-10-16T11:14:46;988.20;;;26.24;58.11
29815;BME280;16708;50.426;7.664;2022-10-16T11:19:42;988.38;;;27.62;49.69
29815;BME280;16708;50.426;7.664;2022-10-16T11:29:30;988.25;;;23.46;78.57
29815;BME280;16708;50.426;7.664;2022-10-16T11:34:24;988.22;;;25.07;64.01
29815;BME280;16708;50.426;7.664;2022-10-16T11:39:20;988.31;;;26.23;56.22
29815;BME280;16708;50.426;7.664;2022-10-16T11:44:15;988.34;;;25.56;57.07
29815;BME280;16708;50.426;7.664;2022-10-16T11:49:10;988.35;;;26.86;52.68
29815;BME280;16708;50.426;7.664;2022-10-16T11:54:05;988.26;;;26.38;53.90
29815;BME280;16708;50.426;7.664;2022-10-16T11:59:00;988.39;;;24.67;63.17
29815;BME280;16708;50.426;7.664;2022-10-16T12:03:54;988.41;;;28.10;47.54
29815;BME280;16708;50.426;7.664;2022-10-16T12:23:25;988.23;;;21.10;100.00
29815;BME280;16708;50.426;7.664;2022-10-16T12:28:19;988.32;;;20.25;100.00
29815;BME280;16708;50.426;7.664;2022-10-16T12:33:13;988.30;;;22.14;95.42
29815;BME280;16708;50.426;7.664;2022-10-16T12:52:51;988.31;;;21.77;94.21
29815;BME280;16708;50.426;7.664;2022-10-16T13:17:19;988.48;;;20.09;100.00
29815;BME280;16708;50.426;7.664;2022-10-16T13:32:03;988.49;;;20.69;100.00
29815;BME280;16708;50.426;7.664;2022-10-16T13:41:50;988.45;;;21.14;100.00
29815;BME280;16708;50.426;7.664;2022-10-16T13:46:45;988.38;;;22.50;98.18
29815;BME280;16708;50.426;7.664;2022-10-16T13:51:40;988.33;;;21.84;100.00
29815;BME280;16708;50.426;7.664;2022-10-16T13:56:35;988.41;;;21.89;100.00
29815;BME280;16708;50.426;7.664;2022-10-16T14:01:30;988.55;;;20.88;100.00
29815;BME280;16708;50.426;7.664;2022-10-16T14:06:24;988.38;;;21.18;100.00
29815;BME280;16708;50.426;7.664;2022-10-16T14:11:18;988.36;;;20.37;100.00
29815;BME280;16708;50.426;7.664;2022-10-16T14:16:12;988.42;;;20.20;100.00
29815;BME280;16708;50.426;7.664;2022-10-16T14:21:07;988.32;;;19.80;100.00
29815;BME280;16708;50.426;7.664;2022-10-16T14:30:56;988.35;;;19.67;100.00
29815;BME280;16708;50.426;7.664;2022-10-16T14:35:49;988.45;;;19.52;100.00
29815;BME280;16708;50.426;7.664;2022-10-16T14:40:44;988.43;;;19.30;100.00
29815;BME280;16708;50.426;7.664;2022-10-16T14:45:38;988.45;;;19.30;100.00
29815;BME280;16708;50.426;7.664;2022-10-16T14:50:33;988.38;;;19.22;100.00
29815;BME280;16708;50.426;7.664;2022-10-16T14:55:28;988.39;;;19.39;100.00
29815;BME280;16708;50.426;7.664;2022-10-16T15:00:22;988.42;;;19.25;100.00
29815;BME280;16708;50.426;7.664;2022-10-16T15:05:16;988.42;;;19.47;100.00
29815;BME280;16708;50.426;7.664;2022-10-16T15:15:05;988.47;;;19.68;100.00
29815;BME280;16708;50.426;7.664;2022-10-16T15:20:00;988.55;;;19.55;100.00
29815;BME280;16708;50.426;7.664;2022-10-16T15:24:53;988.48;;;19.13;100.00
29815;BME280;16708;50.426;7.664;2022-10-16T15:29:47;988.48;;;19.09;100.00
29815;BME280;16708;50.426;7.664;2022-10-16T15:34:41;988.51;;;18.91;100.00
29815;BME280;16708;50.426;7.664;2022-10-16T15:39:36;988.40;;;18.68;100.00
29815;BME280;16708;50.426;7.664;2022-10-16T15:44:30;988.54;;;18.74;100.00
29815;BME280;16708;50.426;7.664;2022-10-16T15:49:23;988.42;;;18.57;100.00
29815;BME280;16708;50.426;7.664;2022-10-16T15:54:18;988.47;;;18.47;100.00
29815;BME280;16708;50.426;7.664;2022-10-16T15:59:12;988.47;;;18.53;100.00
29815;BME280;16708;50.426;7.664;2022-10-16T16:04:07;988.50;;;18.48;100.00
29815;BME280;16708;50.426;7.664;2022-10-16T16:09:02;988.37;;;18.38;100.00
29815;BME280;16708;50.426;7.664;2022-10-16T16:13:56;988.47;;;18.16;100.00
29815;BME280;16708;50.426;7.664;2022-10-16T16:18:53;988.51;;;17.96;100.00
29815;BME280;16708;50.426;7.664;2022-10-16T16:23:46;988.47;;;17.91;100.00
29815;BME280;16708;50.426;7.664;2022-10-16T16:28:41;988.41;;;17.90;100.00
29815;BME280;16708;50.426;7.664;2022-10-16T16:33:36;988.51;;;17.81;100.00
29815;BME280;16708;50.426;7.664;2022-10-16T16:38:30;988.52;;;17.70;100.00
29815;BME280;16708;50.426;7.664;2022-10-16T16:43:25;988.59;;;17.55;100.00
29815;BME280;16708;50.426;7.664;2022-10-16T16:48:19;988.59;;;17.61;100.00
29815;BME280;16708;50.426;7.664;2022-10-16T16:53:14;988.64;;;17.65;100.00
29815;BME280;16708;50.426;7.664;2022-10-16T16:58:08;988.72;;;17.81;100.00
29815;BME280;16708;50.426;7.664;2022-10-16T17:03:04;988.86;;;17.79;100.00
29815;BME280;16708;50.426;7.664;2022-10-16T17:07:56;988.81;;;18.06;100.00
29815;BME280;16708;50.426;7.664;2022-10-16T17:12:51;988.68;;;17.78;100.00
29815;BME280;16708;50.426;7.664;2022-10-16T17:17:45;988.74;;;17.81;100.00
29815;BME280;16708;50.426;7.664;2022-10-16T17:22:40;988.81;;;18.02;100.00
29815;BME280;16708;50.426;7.664;2022-10-16T17:27:35;988.88;;;17.91;100.00
29815;BME280;16708;50.426;7.664;2022-10-16T17:32:27;988.91;;;17.69;100.00
29815;BME280;16708;50.426;7.664;2022-10-16T17:37:22;988.87;;;17.68;100.00
29815;BME280;16708;50.426;7.664;2022-10-16T17:42:14;988.85;;;17.65;100.00
29815;BME280;16708;50.426;7.664;2022-10-16T17:47:08;988.93;;;17.54;100.00
29815;BME280;16708;50.426;7.664;2022-10-16T17:52:03;989.01;;;17.51;100.00
29815;BME280;16708;50.426;7.664;2022-10-16T17:56:57;989.08;;;17.45;100.00
29815;BME280;16708;50.426;7.664;2022-10-16T18:01:52;989.04;;;17.51;100.00
29815;BME280;16708;50.426;7.664;2022-10-16T18:06:45;989.12;;;17.43;100.00
29815;BME280;16708;50.426;7.664;2022-10-16T18:11:40;989.12;;;17.26;100.00
29815;BME280;16708;50.426;7.664;2022-10-16T18:16:34;989.14;;;17.37;100.00
29815;BME280;16708;50.426;7.664;2022-10-16T18:21:29;989.17;;;17.22;100.00
29815;BME280;16708;50.426;7.664;2022-10-16T18:26:23;989.21;;;17.34;100.00
29815;BME280;16708;50.426;7.664;2022-10-16T18:31:18;989.18;;;17.26;100.00
29815;BME280;16708;50.426;7.664;2022-10-16T18:36:12;989.27;;;17.44;100.00
29815;BME280;16708;50.426;7.664;2022-10-16T18:41:07;989.28;;;17.35;100.00
29815;BME280;16708;50.426;7.664;2022-10-16T18:55:43;989.30;;;17.24;100.00
29815;BME280;16708;50.426;7.664;2022-10-16T19:00:37;989.39;;;17.27;100.00
29815;BME280;16708;50.426;7.664;2022-10-16T19:05:31;989.34;;;17.36;100.00
29815;BME280;16708;50.426;7.664;2022-10-16T19:10:26;989.33;;;17.22;100.00
29815;BME280;16708;50.426;7.664;2022-10-16T19:15:21;989.34;;;17.21;100.00
29815;BME280;16708;50.426;7.664;2022-10-16T19:29:56;989.47;;;17.44;100.00
29815;BME280;16708;50.426;7.664;2022-10-16T19:44:35;989.60;;;17.61;100.00
29815;BME280;16708;50.426;7.664;2022-10-16T19:59:11;989.49;;;17.64;100.00
29815;BME280;16708;50.426;7.664;2022-10-16T20:13:49;989.50;;;17.55;100.00
29815;BME280;16708;50.426;7.664;2022-10-16T20:28:29;989.71;;;17.45;100.00
29815;BME280;16708;50.426;7.664;2022-10-16T20:43:08;989.66;;;17.47;100.00
29815;BME280;16708;50.426;7.664;2022-10-16T20:57:46;989.74;;;17.47;100.00
29815;BME280;16708;50.426;7.664;2022-10-16T21:12:25;989.62;;;17.34;100.00
29815;BME280;16708;50.426;7.664;2022-10-16T21:27:04;989.75;;;17.37;100.00
29815;BME280;16708;50.426;7.664;2022-10-16T21:41:42;989.76;;;17.05;100.00
29815;BME280;16708;50.426;7.664;2022-10-16T21:56:20;989.70;;;17.26;100.00
29815;BME280;16708;50.426;7.664;2022-10-16T22:10:55;989.81;;;17.07;100.00
29815;BME280;16708;50.426;7.664;2022-10-16T22:25:32;989.85;;;17.07;100.00
29815;BME280;16708;50.426;7.664;2022-10-16T22:40:10;989.91;;;17.00;100.00
29815;BME280;16708;50.426;7.664;2022-10-16T22:54:49;989.99;;;17.29;100.00
29815;BME280;16708;50.426;7.664;2022-10-16T23:09:29;989.98;;;17.56;100.00
29815;BME280;16708;50.426;7.664;2022-10-16T23:24:08;990.16;;;17.57;100.00
29815;BME280;16708;50.426;7.664;2022-10-16T23:38:47;990.10;;;17.61;100.00
29815;BME280;16708;50.426;7.664;2022-10-16T23:53:23;990.22;;;17.25;100.00
